createdAt,value
2022-10-06T00:01:14.330Z,15.10
2022-10-06T00:03:41.885Z,15.10
2022-10-06T00:06:11.793Z,15.10
2022-10-06T00:08:41.017Z,15.00
2022-10-06T00:11:09.455Z,14.90
2022-10-06T00:13:37.927Z,14.80
2022-10-06T00:16:21.608Z,14.80
2022-10-06T00:18:48.920Z,14.80
2022-10-06T00:21:16.210Z,14.70
2022-10-06T00:23:43.424Z,14.70
2022-10-06T00:26:16.746Z,14.70
2022-10-06T00:28:47.387Z,14.70
2022-10-06T00:31:15.384Z,14.70
2022-10-06T00:33:42.318Z,14.80
2022-10-06T00:36:09.253Z,14.80
2022-10-06T00:38:36.271Z,14.80
2022-10-06T00:41:03.275Z,14.80
2022-10-06T00:43:45.104Z,14.90
2022-10-06T00:46:29.040Z,14.90
2022-10-06T00:49:06.368Z,15.00
2022-10-06T00:51:35.609Z,15.00
2022-10-06T00:54:03.787Z,15.10
2022-10-06T00:56:31.407Z,15.10
2022-10-06T00:58:58.217Z,15.20
2022-10-06T01:01:26.881Z,15.20
2022-10-06T01:04:02.895Z,15.20
2022-10-06T01:06:29.706Z,15.20
2022-10-06T01:08:56.561Z,15.20
2022-10-06T01:11:23.488Z,15.10
2022-10-06T01:13:50.439Z,15.10
2022-10-06T01:16:24.422Z,15.20
2022-10-06T01:18:55.666Z,15.10
2022-10-06T01:21:44.577Z,15.10
2022-10-06T01:24:11.428Z,15.00
2022-10-06T01:26:43.729Z,15.10
2022-10-06T01:29:10.730Z,15.00
2022-10-06T01:31:38.223Z,15.00
2022-10-06T01:34:05.184Z,15.00
2022-10-06T01:36:32.028Z,15.00
2022-10-06T01:38:58.860Z,15.00
2022-10-06T01:41:27.694Z,15.00
2022-10-06T01:43:54.537Z,15.00
2022-10-06T01:46:21.661Z,15.00
2022-10-06T01:48:48.631Z,15.00
2022-10-06T01:51:16.455Z,15.00
2022-10-06T01:53:43.510Z,15.00
2022-10-06T01:56:10.737Z,15.10
2022-10-06T01:58:37.555Z,15.10
2022-10-06T02:01:07.219Z,15.10
2022-10-06T02:03:36.597Z,15.20
2022-10-06T02:06:04.029Z,15.20
2022-10-06T02:08:31.514Z,15.20
2022-10-06T02:10:58.627Z,15.30
2022-10-06T02:13:28.397Z,15.30
2022-10-06T02:15:58.448Z,15.40
2022-10-06T02:18:26.360Z,15.40
2022-10-06T02:20:53.674Z,15.40
2022-10-06T02:23:20.479Z,15.40
2022-10-06T02:25:47.266Z,15.50
2022-10-06T02:28:14.301Z,15.50
2022-10-06T02:30:41.151Z,15.50
2022-10-06T02:33:08.182Z,15.50
2022-10-06T02:35:35.074Z,15.50
2022-10-06T02:38:01.884Z,15.50
2022-10-06T02:40:28.790Z,15.50
2022-10-06T02:42:55.571Z,15.40
2022-10-06T02:45:22.430Z,15.40
2022-10-06T02:47:49.749Z,15.40
2022-10-06T02:50:16.634Z,15.40
2022-10-06T02:52:43.471Z,15.40
2022-10-06T02:55:10.678Z,15.30
2022-10-06T02:57:37.573Z,15.30
2022-10-06T03:00:07.433Z,15.30
2022-10-06T03:02:34.781Z,15.20
2022-10-06T03:05:01.719Z,15.20
2022-10-06T03:07:28.626Z,15.20
2022-10-06T03:09:55.466Z,15.20
2022-10-06T03:12:23.067Z,15.20
2022-10-06T03:14:49.869Z,15.10
2022-10-06T03:17:16.711Z,15.10
2022-10-06T03:19:43.526Z,15.10
2022-10-06T03:22:10.613Z,15.00
2022-10-06T03:24:37.394Z,15.00
2022-10-06T03:27:04.291Z,15.00
2022-10-06T03:29:31.155Z,15.00
2022-10-06T03:31:58.784Z,15.00
2022-10-06T03:34:25.647Z,14.90
2022-10-06T03:36:52.457Z,14.90
2022-10-06T03:39:22.604Z,14.80
2022-10-06T03:41:49.476Z,14.80
2022-10-06T03:44:16.299Z,14.80
2022-10-06T03:46:43.176Z,14.70
2022-10-06T03:49:10.005Z,14.70
2022-10-06T03:51:42.147Z,14.70
2022-10-06T03:54:12.477Z,14.70
2022-10-06T03:56:41.534Z,14.70
2022-10-06T03:59:16.381Z,14.70
2022-10-06T04:01:47.134Z,14.70
2022-10-06T04:04:14.386Z,14.70
2022-10-06T04:06:44.183Z,14.70
2022-10-06T04:09:15.525Z,14.60
2022-10-06T04:11:44.805Z,14.60
2022-10-06T04:14:15.372Z,14.60
2022-10-06T04:16:51.138Z,14.60
2022-10-06T04:19:18.702Z,14.50
2022-10-06T04:21:49.813Z,14.50
2022-10-06T04:24:19.280Z,14.50
2022-10-06T04:26:52.275Z,14.40
2022-10-06T04:29:19.188Z,14.40
2022-10-06T04:31:46.178Z,14.40
2022-10-06T04:34:13.519Z,14.40
2022-10-06T04:36:42.940Z,14.40
2022-10-06T04:39:13.397Z,14.40
2022-10-06T04:41:42.642Z,14.40
2022-10-06T04:44:10.293Z,14.50
2022-10-06T04:46:43.266Z,14.40
2022-10-06T04:49:20.049Z,14.50
2022-10-06T04:51:49.665Z,14.50
2022-10-06T04:54:17.236Z,14.60
2022-10-06T04:56:44.039Z,14.60
2022-10-06T04:59:10.934Z,14.60
2022-10-06T05:01:38.181Z,14.60
2022-10-06T05:04:06.394Z,14.60
2022-10-06T05:06:41.922Z,14.60
2022-10-06T05:09:13.013Z,14.60
2022-10-06T05:11:40.037Z,14.60
2022-10-06T05:14:07.240Z,14.60
2022-10-06T05:16:34.421Z,14.60
2022-10-06T05:19:01.249Z,14.60
2022-10-06T05:21:32.268Z,14.60
2022-10-06T05:24:00.167Z,14.60
2022-10-06T05:26:31.401Z,14.60
2022-10-06T05:28:58.743Z,14.60
2022-10-06T05:31:41.054Z,14.60
2022-10-06T05:34:08.459Z,14.60
2022-10-06T05:36:35.992Z,14.60
2022-10-06T05:39:07.211Z,14.60
2022-10-06T05:41:34.962Z,14.60
2022-10-06T05:44:01.872Z,14.60
2022-10-06T05:46:32.152Z,14.60
2022-10-06T05:49:03.181Z,14.60
2022-10-06T05:51:34.366Z,14.60
2022-10-06T05:54:02.093Z,14.60
2022-10-06T05:56:36.211Z,14.60
2022-10-06T05:59:04.610Z,14.70
2022-10-06T06:01:40.647Z,14.70
2022-10-06T06:04:11.120Z,14.70
2022-10-06T06:06:48.819Z,14.70
2022-10-06T06:09:19.534Z,14.80
2022-10-06T06:11:50.184Z,14.80
2022-10-06T06:14:40.212Z,14.80
2022-10-06T06:17:07.501Z,14.80
2022-10-06T06:19:34.307Z,14.90
2022-10-06T06:22:01.085Z,15.00
2022-10-06T06:24:27.865Z,15.00
2022-10-06T06:26:54.736Z,15.00
2022-10-06T06:29:23.675Z,15.10
2022-10-06T06:31:51.090Z,15.10
2022-10-06T06:34:18.049Z,15.20
2022-10-06T06:36:47.409Z,15.30
2022-10-06T06:39:15.932Z,15.30
2022-10-06T06:41:46.032Z,15.40
2022-10-06T06:44:13.920Z,15.40
2022-10-06T06:46:49.077Z,15.50
2022-10-06T06:49:17.266Z,15.60
2022-10-06T06:51:49.733Z,15.70
2022-10-06T06:54:18.145Z,15.80
2022-10-06T06:56:45.843Z,15.80
2022-10-06T06:59:13.654Z,15.90
2022-10-06T07:01:47.030Z,16.00
2022-10-06T07:04:16.706Z,16.10
2022-10-06T07:06:53.405Z,16.20
2022-10-06T07:09:20.840Z,16.30
2022-10-06T07:11:47.716Z,16.50
2022-10-06T07:14:14.517Z,16.60
2022-10-06T07:17:00.052Z,16.80
2022-10-06T07:19:45.650Z,17.20
2022-10-06T07:22:37.804Z,17.60
2022-10-06T07:25:26.241Z,18.10
2022-10-06T07:27:54.651Z,18.70
2022-10-06T07:30:28.419Z,19.20
2022-10-06T07:32:55.891Z,19.70
2022-10-06T07:35:27.512Z,20.20
2022-10-06T07:37:54.436Z,20.60
2022-10-06T07:40:21.361Z,21.10
2022-10-06T07:42:48.432Z,21.50
2022-10-06T07:45:39.307Z,21.80
2022-10-06T07:48:14.234Z,22.20
2022-10-06T07:50:43.767Z,22.70
2022-10-06T07:53:10.637Z,22.90
2022-10-06T07:55:44.513Z,23.20
2022-10-06T07:58:19.011Z,23.50
2022-10-06T08:00:48.671Z,23.70
2022-10-06T08:03:18.057Z,24.00
2022-10-06T08:05:57.670Z,24.30
2022-10-06T08:08:25.046Z,24.60
2022-10-06T08:11:00.231Z,24.80
2022-10-06T08:13:28.256Z,25.10
2022-10-06T08:15:56.561Z,25.30
2022-10-06T08:18:45.402Z,25.60
2022-10-06T08:21:22.074Z,25.80
2022-10-06T08:23:51.211Z,26.00
2022-10-06T08:26:20.677Z,26.10
2022-10-06T08:28:54.391Z,26.20
2022-10-06T08:31:23.329Z,26.40
2022-10-06T08:33:56.142Z,26.50
2022-10-06T08:36:31.027Z,26.70
2022-10-06T08:38:58.628Z,26.90
2022-10-06T08:41:50.758Z,27.10
2022-10-06T08:44:42.922Z,27.30
2022-10-06T08:47:18.545Z,27.50
2022-10-06T08:49:48.459Z,27.60
2022-10-06T08:52:50.283Z,27.70
2022-10-06T08:55:48.747Z,27.90
2022-10-06T08:58:58.375Z,28.00
2022-10-06T09:01:39.011Z,28.20
2022-10-06T09:04:07.627Z,28.50
2022-10-06T09:07:21.220Z,28.70
2022-10-06T09:10:05.798Z,28.90
2022-10-06T09:13:14.826Z,29.30
2022-10-06T09:15:56.683Z,29.50
2022-10-06T09:18:56.121Z,30.00
2022-10-06T09:21:30.291Z,30.30
2022-10-06T09:24:07.615Z,30.60
2022-10-06T09:26:34.665Z,30.90
2022-10-06T09:29:04.508Z,31.10
2022-10-06T09:31:42.203Z,31.20
2022-10-06T09:34:09.012Z,31.30
2022-10-06T09:37:01.732Z,31.30
2022-10-06T09:39:41.442Z,31.40
2022-10-06T09:42:25.658Z,31.40
2022-10-06T09:44:58.650Z,31.50
2022-10-06T09:47:35.265Z,31.70
2022-10-06T09:50:27.796Z,31.80
2022-10-06T09:53:00.822Z,32.10
2022-10-06T09:55:36.906Z,32.30
2022-10-06T09:58:34.624Z,32.50
2022-10-06T10:01:06.841Z,32.60
2022-10-06T10:04:15.636Z,32.80
2022-10-06T10:06:40.517Z,32.90
2022-10-06T10:09:29.839Z,32.90
2022-10-06T10:12:29.879Z,32.90
2022-10-06T10:15:04.971Z,33.00
2022-10-06T10:18:05.205Z,33.00
2022-10-06T10:20:36.272Z,33.10
2022-10-06T10:23:36.250Z,33.40
2022-10-06T10:26:38.947Z,33.50
2022-10-06T10:29:32.965Z,33.70
2022-10-06T10:32:19.680Z,33.90
2022-10-06T10:35:30.163Z,34.10
2022-10-06T10:38:13.699Z,34.20
2022-10-06T10:40:51.448Z,34.30
2022-10-06T10:43:52.516Z,34.40
2022-10-06T10:46:41.375Z,34.40
2022-10-06T10:49:29.868Z,34.10
2022-10-06T10:52:11.121Z,33.80
2022-10-06T10:54:48.121Z,33.30
2022-10-06T10:57:22.337Z,32.70
2022-10-06T11:00:04.672Z,32.10
2022-10-06T11:02:33.211Z,31.50
2022-10-06T11:05:15.025Z,31.00
2022-10-06T11:08:11.063Z,30.60
2022-10-06T11:10:51.574Z,30.10
2022-10-06T11:13:45.880Z,29.70
2022-10-06T11:16:21.892Z,29.40
2022-10-06T11:19:05.454Z,29.10
2022-10-06T11:21:47.487Z,28.80
2022-10-06T11:24:38.126Z,28.50
2022-10-06T11:28:00.841Z,28.20
2022-10-06T11:30:30.490Z,27.90
2022-10-06T11:33:11.462Z,27.60
2022-10-06T11:35:42.954Z,27.30
2022-10-06T11:38:38.027Z,27.10
2022-10-06T11:41:17.434Z,26.80
2022-10-06T11:44:19.233Z,26.60
2022-10-06T11:46:57.042Z,26.30
2022-10-06T11:49:29.507Z,26.20
2022-10-06T11:52:00.115Z,26.00
2022-10-06T11:54:43.601Z,25.90
2022-10-06T11:58:23.513Z,25.70
2022-10-06T12:00:54.618Z,25.60
2022-10-06T12:03:33.269Z,25.50
2022-10-06T12:06:00.150Z,25.40
2022-10-06T12:08:41.558Z,25.40
2022-10-06T12:11:44.553Z,25.50
2022-10-06T12:18:00.806Z,25.50
2022-10-06T12:21:06.409Z,25.60
2022-10-06T12:24:34.136Z,25.60
2022-10-06T12:27:48.726Z,25.60
2022-10-06T12:31:22.286Z,25.50
2022-10-06T12:33:50.485Z,25.50
2022-10-06T12:36:32.082Z,25.40
2022-10-06T12:39:07.402Z,25.40
2022-10-06T12:42:31.222Z,25.40
2022-10-06T12:44:58.374Z,25.40
2022-10-06T12:47:52.435Z,25.50
2022-10-06T12:50:27.195Z,25.60
2022-10-06T12:53:08.704Z,25.60
2022-10-06T12:55:49.025Z,25.70
2022-10-06T12:58:28.517Z,25.80
2022-10-06T13:01:02.877Z,25.80
2022-10-06T13:03:30.564Z,25.80
2022-10-06T13:06:08.241Z,25.80
2022-10-06T13:08:38.343Z,25.70
2022-10-06T13:11:21.256Z,25.70
2022-10-06T13:13:52.186Z,25.70
2022-10-06T13:16:48.208Z,25.60
2022-10-06T13:19:21.412Z,25.60
2022-10-06T13:21:48.289Z,25.50
2022-10-06T13:24:21.425Z,25.40
2022-10-06T13:26:48.739Z,25.40
2022-10-06T13:29:21.424Z,25.40
2022-10-06T13:31:53.211Z,25.30
2022-10-06T13:34:34.828Z,25.30
2022-10-06T13:37:02.368Z,25.40
2022-10-06T13:39:31.862Z,25.40
2022-10-06T13:42:03.687Z,25.40
2022-10-06T13:44:35.650Z,25.40
2022-10-06T13:47:17.149Z,25.50
2022-10-06T13:50:03.130Z,25.50
2022-10-06T13:52:46.528Z,25.60
2022-10-06T13:55:22.749Z,25.70
2022-10-06T13:58:09.958Z,25.80
2022-10-06T14:00:50.992Z,25.80
2022-10-06T14:03:28.537Z,25.90
2022-10-06T14:06:21.922Z,26.10
2022-10-06T14:08:57.634Z,26.30
2022-10-06T14:11:28.998Z,26.70
2022-10-06T14:14:06.070Z,27.20
2022-10-06T14:16:33.422Z,27.80
2022-10-06T14:19:05.736Z,28.50
2022-10-06T14:21:39.313Z,29.10
2022-10-06T14:24:28.383Z,29.70
2022-10-06T14:27:02.644Z,30.20
2022-10-06T14:29:29.506Z,30.50
2022-10-06T14:32:07.568Z,30.70
2022-10-06T14:34:35.634Z,30.60
2022-10-06T14:37:02.450Z,30.40
2022-10-06T14:39:29.233Z,30.10
2022-10-06T14:41:56.177Z,29.70
2022-10-06T14:44:23.018Z,29.40
2022-10-06T14:46:50.244Z,28.90
2022-10-06T14:49:17.557Z,28.50
2022-10-06T14:51:45.652Z,28.20
2022-10-06T14:54:13.636Z,27.90
2022-10-06T14:56:41.906Z,27.50
2022-10-06T14:59:16.668Z,27.30
2022-10-06T15:01:44.104Z,27.20
2022-10-06T15:04:14.619Z,27.40
2022-10-06T15:07:01.356Z,27.70
2022-10-06T15:09:31.071Z,28.30
2022-10-06T15:11:59.842Z,28.90
2022-10-06T15:14:28.465Z,29.60
2022-10-06T15:16:59.019Z,30.10
2022-10-06T15:19:27.060Z,30.70
2022-10-06T15:21:54.451Z,31.10
2022-10-06T15:24:21.485Z,31.60
2022-10-06T15:27:07.114Z,31.80
2022-10-06T15:29:37.427Z,32.10
2022-10-06T15:32:06.524Z,32.20
2022-10-06T15:34:34.663Z,32.30
2022-10-06T15:37:01.842Z,32.30
2022-10-06T15:39:35.868Z,32.30
2022-10-06T15:42:03.287Z,32.20
2022-10-06T15:44:34.614Z,32.00
2022-10-06T15:47:04.991Z,31.60
2022-10-06T15:49:32.971Z,31.20
2022-10-06T15:52:03.261Z,30.70
2022-10-06T15:54:37.428Z,30.10
2022-10-06T15:57:08.583Z,29.50
2022-10-06T15:59:36.662Z,28.90
2022-10-06T16:02:09.753Z,28.40
2022-10-06T16:04:39.198Z,27.90
2022-10-06T16:07:09.180Z,27.40
2022-10-06T16:09:43.329Z,26.90
2022-10-06T16:12:13.109Z,26.50
2022-10-06T16:14:39.939Z,26.10
2022-10-06T16:17:07.701Z,25.80
2022-10-06T16:19:36.970Z,25.40
2022-10-06T16:22:07.494Z,25.10
2022-10-06T16:24:34.978Z,24.80
2022-10-06T16:27:02.265Z,24.60
2022-10-06T16:29:29.225Z,24.30
2022-10-06T16:31:56.264Z,24.10
2022-10-06T16:34:23.535Z,23.80
2022-10-06T16:36:50.367Z,23.60
2022-10-06T16:39:21.281Z,23.40
2022-10-06T16:41:49.202Z,23.20
2022-10-06T16:44:16.617Z,23.00
2022-10-06T16:46:43.973Z,22.80
2022-10-06T16:49:11.280Z,22.60
2022-10-06T16:51:45.687Z,22.40
2022-10-06T16:54:15.150Z,22.20
2022-10-06T16:56:48.495Z,22.00
2022-10-06T16:59:18.889Z,21.90
2022-10-06T17:01:46.608Z,21.70
2022-10-06T17:04:14.600Z,21.50
2022-10-06T17:06:48.462Z,21.30
2022-10-06T17:09:21.318Z,21.20
2022-10-06T17:12:09.608Z,21.10
2022-10-06T17:14:36.454Z,21.00
2022-10-06T17:17:03.650Z,20.80
2022-10-06T17:19:30.888Z,20.70
2022-10-06T17:21:59.760Z,20.60
2022-10-06T17:24:29.092Z,20.50
2022-10-06T17:26:57.263Z,20.30
2022-10-06T17:29:25.821Z,20.20
2022-10-06T17:31:56.206Z,20.10
2022-10-06T17:34:26.565Z,20.00
2022-10-06T17:36:54.773Z,19.90
2022-10-06T17:39:24.481Z,19.80
2022-10-06T17:41:53.531Z,19.70
2022-10-06T17:44:25.719Z,19.60
2022-10-06T17:46:56.225Z,19.60
2022-10-06T17:49:24.967Z,19.50
2022-10-06T17:51:54.479Z,19.40
2022-10-06T17:54:24.234Z,19.30
2022-10-06T17:56:54.785Z,19.20
2022-10-06T17:59:30.728Z,19.20
2022-10-06T18:02:01.342Z,19.10
2022-10-06T18:04:29.097Z,19.00
2022-10-06T18:06:56.901Z,18.90
2022-10-06T18:09:24.168Z,18.90
2022-10-06T18:11:56.205Z,18.80
2022-10-06T18:14:27.018Z,18.80
2022-10-06T18:17:00.745Z,18.70
2022-10-06T18:19:35.660Z,18.70
2022-10-06T18:22:12.983Z,18.60
2022-10-06T18:24:40.223Z,18.50
2022-10-06T18:27:08.091Z,18.50
2022-10-06T18:29:38.450Z,18.50
2022-10-06T18:33:19.348Z,18.40
2022-10-06T18:37:42.679Z,18.30
2022-10-06T18:40:11.123Z,18.30
2022-10-06T18:42:39.208Z,18.30
2022-10-06T18:45:27.097Z,18.30
2022-10-06T18:48:12.410Z,18.30
2022-10-06T18:50:39.526Z,18.20
2022-10-06T18:53:06.343Z,18.20
2022-10-06T18:55:34.334Z,18.20
2022-10-06T18:58:01.985Z,18.10
2022-10-06T19:00:28.804Z,18.10
2022-10-06T19:02:56.751Z,18.00
2022-10-06T19:05:24.101Z,18.00
2022-10-06T19:07:53.864Z,18.00
2022-10-06T19:10:21.143Z,18.00
2022-10-06T19:12:48.437Z,18.00
2022-10-06T19:15:20.392Z,17.90
2022-10-06T19:17:48.222Z,17.90
2022-10-06T19:20:15.180Z,17.90
2022-10-06T19:22:43.366Z,17.80
2022-10-06T19:25:10.330Z,17.80
2022-10-06T19:27:37.199Z,17.80
2022-10-06T19:30:05.241Z,17.70
2022-10-06T19:32:32.791Z,17.70
2022-10-06T19:35:00.261Z,17.60
2022-10-06T19:37:30.021Z,17.60
2022-10-06T19:39:56.981Z,17.60
2022-10-06T19:42:42.330Z,17.60
2022-10-06T19:45:11.766Z,17.50
2022-10-06T19:47:39.259Z,17.50
2022-10-06T19:50:12.530Z,17.40
2022-10-06T19:52:41.900Z,17.40
2022-10-06T19:55:08.802Z,17.40
2022-10-06T19:57:35.956Z,17.30
2022-10-06T20:00:05.633Z,17.30
2022-10-06T20:02:32.462Z,17.30
2022-10-06T20:04:59.248Z,17.20
2022-10-06T20:07:27.803Z,17.20
2022-10-06T20:09:55.535Z,17.20
2022-10-06T20:12:25.292Z,17.20
2022-10-06T20:14:53.682Z,17.10
2022-10-06T20:17:22.178Z,17.10
2022-10-06T20:19:50.249Z,17.10
2022-10-06T20:22:18.586Z,17.00
2022-10-06T20:24:45.368Z,17.00
2022-10-06T20:27:12.244Z,16.90
2022-10-06T20:29:39.114Z,16.90
2022-10-06T20:32:05.970Z,16.90
2022-10-06T20:34:33.203Z,16.90
2022-10-06T20:37:05.284Z,16.90
2022-10-06T20:39:52.725Z,16.90
2022-10-06T20:42:20.782Z,16.90
2022-10-06T20:44:48.225Z,16.90
2022-10-06T20:47:16.484Z,16.90
2022-10-06T20:49:43.892Z,16.90
2022-10-06T20:52:14.468Z,16.90
2022-10-06T20:54:41.542Z,17.00
2022-10-06T20:57:09.435Z,17.00
2022-10-06T20:59:37.422Z,17.10
2022-10-06T21:02:05.695Z,17.10
2022-10-06T21:04:34.490Z,17.10
2022-10-06T21:07:03.895Z,17.10
2022-10-06T21:09:31.119Z,17.10
2022-10-06T21:11:57.964Z,17.20
2022-10-06T21:14:25.059Z,17.20
2022-10-06T21:16:52.250Z,17.20
2022-10-06T21:19:20.212Z,17.20
2022-10-06T21:21:51.705Z,17.20
2022-10-06T21:24:19.233Z,17.30
2022-10-06T21:26:46.063Z,17.30
2022-10-06T21:29:15.302Z,17.30
2022-10-06T21:31:43.349Z,17.30
2022-10-06T21:34:10.610Z,17.40
2022-10-06T21:36:37.961Z,17.40
2022-10-06T21:39:06.786Z,17.40
2022-10-06T21:41:40.683Z,17.40
2022-10-06T21:44:08.552Z,17.40
2022-10-06T21:46:42.820Z,17.40
2022-10-06T21:49:12.443Z,17.40
2022-10-06T21:51:41.631Z,17.40
2022-10-06T21:54:11.974Z,17.40
2022-10-06T21:56:39.795Z,17.40
2022-10-06T21:59:07.800Z,17.40
2022-10-06T22:01:38.495Z,17.50
2022-10-06T22:04:06.241Z,17.50
2022-10-06T22:06:36.642Z,17.50
2022-10-06T22:09:08.225Z,17.50
2022-10-06T22:11:40.292Z,17.50
2022-10-06T22:14:11.667Z,17.50
2022-10-06T22:16:39.460Z,17.50
2022-10-06T22:19:10.584Z,17.50
2022-10-06T22:21:46.704Z,17.50
2022-10-06T22:24:17.574Z,17.60
2022-10-06T22:26:44.542Z,17.60
2022-10-06T22:29:15.864Z,17.60
2022-10-06T22:31:45.779Z,17.60
2022-10-06T22:34:17.242Z,17.60
2022-10-06T22:36:44.288Z,17.50
2022-10-06T22:39:11.286Z,17.50
2022-10-06T22:41:38.555Z,17.50
2022-10-06T22:44:05.949Z,17.50
2022-10-06T22:46:35.988Z,17.50
2022-10-06T22:49:04.584Z,17.50
2022-10-06T22:51:31.439Z,17.40
2022-10-06T22:54:00.131Z,17.50
2022-10-06T22:56:31.296Z,17.50
2022-10-06T22:58:59.606Z,17.50
2022-10-06T23:01:28.507Z,17.50
2022-10-06T23:03:56.169Z,17.50
2022-10-06T23:06:24.440Z,17.60
2022-10-06T23:08:51.696Z,17.50
2022-10-06T23:11:21.699Z,17.60
2022-10-06T23:13:50.245Z,17.60
2022-10-06T23:16:19.208Z,17.60
2022-10-06T23:18:47.006Z,17.60
2022-10-06T23:21:23.888Z,17.60
2022-10-06T23:23:55.503Z,17.60
2022-10-06T23:26:23.813Z,17.60
2022-10-06T23:28:57.492Z,17.60
2022-10-06T23:31:25.183Z,17.60
2022-10-06T23:33:53.394Z,17.60
2022-10-06T23:36:20.218Z,17.60
2022-10-06T23:38:47.466Z,17.60
2022-10-06T23:41:14.545Z,17.60
2022-10-06T23:43:41.463Z,17.50
2022-10-06T23:46:08.824Z,17.60
2022-10-06T23:48:36.007Z,17.50
2022-10-06T23:51:07.069Z,17.60
2022-10-06T23:53:35.191Z,17.50
2022-10-06T23:56:02.674Z,17.50
2022-10-06T23:58:29.517Z,17.60
